Time;durP1;ratioP1;P1;durP2;ratioP2;P2;SDS_P1;SDS_P2;PMS_P1;PMS_P2;Temp;Humidity;BMP_temperature;BMP_pressure;BME280_temperature;BME280_humidity;BME280_pressure;Samples;Min_cycle;Max_cycle;Signal;HPM_P1;HPM_P2
2022/04/23 00:01:59;;;;;;;2.50;0.85;;;;;;;18.92;52.44;99480.09;4978968;28;20293;-43
2022/04/23 00:04:25;;;;;;;3.22;1.00;;;;;;;18.91;52.47;99481.94;4978256;28;20366;-41
2022/04/23 00:06:50;;;;;;;3.00;1.10;;;;;;;18.90;52.34;99480.34;4977771;28;20026;-44
2022/04/23 00:09:16;;;;;;;3.53;1.13;;;;;;;18.90;52.64;99480.34;4978474;28;20732;-43
2022/04/23 00:11:42;;;;;;;1.92;0.70;;;;;;;18.89;52.25;99479.53;4978359;28;20324;-46
2022/04/23 00:14:07;;;;;;;2.72;0.75;;;;;;;18.89;52.42;99484.81;4979921;28;20038;-43
2022/04/23 00:16:33;;;;;;;1.63;0.73;;;;;;;18.90;52.50;99483.75;4979016;28;20088;-44
2022/04/23 00:18:59;;;;;;;2.15;0.90;;;;;;;18.91;52.42;99487.22;4978626;28;20053;-46
2022/04/23 00:21:24;;;;;;;2.05;0.70;;;;;;;18.90;52.33;99489.03;4978794;28;20137;-43
2022/04/23 00:23:50;;;;;;;3.63;0.90;;;;;;;18.90;52.42;99475.84;4978795;28;20030;-41
2022/04/23 00:26:16;;;;;;;2.17;0.95;;;;;;;18.90;52.35;99486.41;4980159;28;20030;-42
2022/04/23 00:28:41;;;;;;;1.95;0.55;;;;;;;18.89;52.23;99479.53;4977725;28;20084;-42
2022/04/23 00:31:07;;;;;;;1.98;0.85;;;;;;;18.89;52.15;99490.09;4980213;28;20552;-43
2022/04/23 00:33:37;;;;;;;3.85;1.02;;;;;;;18.89;52.16;99486.66;4979478;28;20112;-42
2022/04/23 00:36:05;;;;;;;2.05;0.88;;;;;;;18.90;52.26;99494.31;4978023;28;20202;-42
2022/04/23 00:38:33;;;;;;;3.97;1.05;;;;;;;18.89;52.11;99490.09;4984424;28;20465;-42
2022/04/23 00:40:58;;;;;;;3.28;0.85;;;;;;;18.90;52.15;99490.91;4985894;28;20096;-41
2022/04/23 00:43:29;;;;;;;1.52;0.75;;;;;;;18.90;51.99;99486.41;4984778;28;20031;-43
2022/04/23 00:45:55;;;;;;;2.72;0.70;;;;;;;18.93;52.04;99489.63;4984293;28;20029;-43
2022/04/23 00:48:21;;;;;;;1.75;0.65;;;;;;;18.92;52.12;99486.19;4978705;28;20045;-42
2022/04/23 00:50:49;;;;;;;2.08;0.93;;;;;;;18.94;52.10;99491.25;4983353;28;20134;-41
2022/04/23 00:53:15;;;;;;;3.05;0.77;;;;;;;18.94;51.94;99485.97;4981709;28;20027;-44
2022/04/23 00:55:41;;;;;;;1.05;0.50;;;;;;;18.93;52.04;99485.16;4978119;28;20081;-42
2022/04/23 00:58:07;;;;;;;2.10;0.70;;;;;;;18.94;51.99;99480.69;4978463;28;20259;-42
2022/04/23 01:00:33;;;;;;;2.10;0.43;;;;;;;18.93;51.89;99482.53;4978250;28;20417;-43
2022/04/23 01:02:58;;;;;;;2.15;0.85;;;;;;;18.94;51.96;99488.59;4979008;28;20101;-43
2022/04/23 01:05:24;;;;;;;2.28;0.57;;;;;;;18.92;51.96;99486.19;4976205;28;20062;-45
2022/04/23 01:07:51;;;;;;;1.88;0.60;;;;;;;18.92;51.88;99488.03;4978498;28;20034;-44
2022/04/23 01:10:17;;;;;;;3.15;0.65;;;;;;;18.90;51.86;99489.03;4977493;28;20042;-49
2022/04/23 01:12:45;;;;;;;1.73;0.57;;;;;;;18.91;51.91;99487.22;4979778;28;20042;-43
2022/04/23 01:15:13;;;;;;;0.98;0.47;;;;;;;18.89;51.79;99484.81;4975487;28;20042;-47
2022/04/23 01:17:40;;;;;;;1.63;0.57;;;;;;;18.89;52.06;99487.47;4978203;28;20034;-43
2022/04/23 01:20:05;;;;;;;1.70;0.50;;;;;;;18.89;51.84;99484.03;4977292;28;20038;-45
2022/04/23 01:22:31;;;;;;;1.58;0.60;;;;;;;18.89;51.88;99489.28;4977512;28;20754;-42
2022/04/23 01:24:57;;;;;;;2.50;0.63;;;;;;;18.89;51.97;99482.19;4977390;28;20482;-48
2022/04/23 01:27:29;;;;;;;2.63;0.70;;;;;;;18.87;51.93;99486.06;4977167;28;20030;-44
2022/04/23 01:29:58;;;;;;;1.38;0.40;;;;;;;18.87;51.88;99488.72;4977611;28;21289;-43
2022/04/23 01:32:24;;;;;;;2.00;0.70;;;;;;;18.88;51.90;99491.13;4978351;28;20137;-41
2022/04/23 01:34:49;;;;;;;1.52;0.60;;;;;;;18.87;51.78;99494.78;4977939;28;20033;-44
2022/04/23 01:37:17;;;;;;;1.70;0.50;;;;;;;18.86;51.75;99495.81;4976618;28;20960;-47
2022/04/23 01:39:44;;;;;;;1.70;0.68;;;;;;;18.85;51.87;99496.84;4977845;28;20029;-43
2022/04/23 01:42:09;;;;;;;2.13;0.63;;;;;;;18.84;52.00;99497.06;4977076;28;20073;-44
2022/04/23 01:44:35;;;;;;;2.72;0.82;;;;;;;18.84;51.79;99503.16;4977987;28;20121;-42
2022/04/23 01:47:00;;;;;;;2.45;0.50;;;;;;;18.84;51.78;99502.34;4975851;28;20069;-43
2022/04/23 01:49:26;;;;;;;1.52;0.60;;;;;;;18.82;51.90;99510.47;4977445;28;20026;-42
2022/04/23 01:51:51;;;;;;;1.30;0.40;;;;;;;18.81;51.75;99510.72;4980429;28;20037;-43
2022/04/23 01:54:16;;;;;;;1.50;0.50;;;;;;;18.80;51.78;99504.63;4979038;28;20044;-44
2022/04/23 01:56:42;;;;;;;1.85;0.40;;;;;;;18.79;51.88;99505.66;4981673;28;20026;-41
2022/04/23 01:59:07;;;;;;;1.45;0.50;;;;;;;18.79;51.88;99510.94;4984676;28;20072;-42
2022/04/23 02:01:36;;;;;;;1.10;0.50;;;;;;;18.79;51.89;99504.84;4981735;28;20623;-42
2022/04/23 02:04:01;;;;;;;1.08;0.40;;;;;;;18.79;51.98;99503.00;4977971;28;20042;-42
2022/04/23 02:06:28;;;;;;;2.83;0.50;;;;;;;18.79;51.84;99508.28;4976600;28;20368;-41
2022/04/23 02:08:54;;;;;;;1.30;0.40;;;;;;;18.77;51.89;99512.97;4975943;28;20026;-42
2022/04/23 02:11:19;;;;;;;0.95;0.40;;;;;;;18.76;51.76;99508.72;5252216;23;20043;-44
2022/04/23 02:13:46;;;;;;;1.45;0.60;;;;;;;18.76;51.88;99514.00;4986079;28;20034;-41
2022/04/23 02:16:11;;;;;;;1.17;0.38;;;;;;;18.76;51.92;99529.03;4987150;28;20440;-42
2022/04/23 02:18:39;;;;;;;1.95;0.60;;;;;;;18.77;51.76;99533.28;4986828;28;20081;-43
2022/04/23 02:21:05;;;;;;;0.98;0.50;;;;;;;18.77;51.65;99534.09;4986904;28;20050;-43
2022/04/23 02:23:31;;;;;;;1.73;0.50;;;;;;;18.76;51.74;99543.03;4986876;28;20501;-41
2022/04/23 02:25:57;;;;;;;1.40;0.68;;;;;;;18.77;51.77;99534.09;4987096;28;20273;-42
2022/04/23 02:28:23;;;;;;;1.42;0.43;;;;;;;18.77;51.84;99538.56;4986688;28;20288;-44
2022/04/23 02:30:49;;;;;;;1.00;0.40;;;;;;;18.76;51.75;99537.75;4986715;28;20030;-42
2022/04/23 02:33:14;;;;;;;1.95;0.40;;;;;;;18.76;51.69;99532.47;4987089;28;20413;-43
2022/04/23 02:35:39;;;;;;;0.80;0.43;;;;;;;18.77;51.73;99520.91;4986949;28;20330;-44
2022/04/23 02:38:05;;;;;;;1.33;0.40;;;;;;;18.76;51.59;99527.19;4987031;28;20435;-43
2022/04/23 02:40:31;;;;;;;0.73;0.30;;;;;;;18.75;51.61;99524.78;4987108;28;20099;-41
2022/04/23 02:42:57;;;;;;;1.13;0.40;;;;;;;18.74;51.73;99518.69;4986957;28;20672;-44
2022/04/23 02:45:24;;;;;;;1.58;0.50;;;;;;;18.74;51.71;99518.69;4985537;28;20096;-41
2022/04/23 02:47:55;;;;;;;1.40;0.40;;;;;;;18.74;51.69;99528.44;4986427;28;20034;-42
2022/04/23 02:50:30;;;;;;;1.08;0.52;;;;;;;18.73;51.67;99525.00;4986769;28;20493;-42
2022/04/23 02:52:57;;;;;;;1.33;0.40;;;;;;;18.75;51.68;99528.22;4986989;28;20049;-41
2022/04/23 02:55:24;;;;;;;1.60;0.40;;;;;;;18.75;51.67;99525.59;4986822;28;20067;-42
2022/04/23 02:57:49;;;;;;;1.33;0.40;;;;;;;18.77;51.51;99531.44;4986751;28;20034;-41
2022/04/23 03:00:15;;;;;;;1.23;0.40;;;;;;;18.77;51.70;99523.53;4986811;28;20385;-43
2022/04/23 03:02:41;;;;;;;0.80;0.28;;;;;;;18.77;51.59;99523.53;4986666;28;20490;-44
2022/04/23 03:05:14;;;;;;;0.90;0.30;;;;;;;18.79;51.46;99534.66;4986812;28;20057;-42
2022/04/23 03:07:40;;;;;;;1.02;0.50;;;;;;;18.79;51.50;99524.13;4986614;28;20505;-42
2022/04/23 03:10:07;;;;;;;1.42;0.30;;;;;;;18.80;51.56;99523.09;4986686;28;20034;-42
2022/04/23 03:12:33;;;;;;;1.48;0.30;;;;;;;18.80;51.58;99527.56;4986205;28;20057;-44
2022/04/23 03:14:58;;;;;;;1.10;0.30;;;;;;;18.80;51.62;99528.38;4986369;28;20109;-42
2022/04/23 03:17:24;;;;;;;1.05;0.40;;;;;;;18.79;51.52;99525.94;4986721;28;20042;-43
2022/04/23 03:19:49;;;;;;;1.08;0.43;;;;;;;18.78;51.48;99519.06;4984841;28;20034;-43
2022/04/23 03:22:16;;;;;;;1.20;0.40;;;;;;;18.77;51.50;99515.63;4984702;28;20851;-42
2022/04/23 03:24:41;;;;;;;0.68;0.40;;;;;;;18.77;51.71;99518.25;4988869;28;20030;-42
2022/04/23 03:27:07;;;;;;;0.95;0.40;;;;;;;18.76;51.50;99519.28;4989619;28;20042;-44
2022/04/23 03:29:33;;;;;;;1.85;0.40;;;;;;;18.76;51.45;99516.66;4989645;28;20045;-41
2022/04/23 03:31:59;;;;;;;1.08;0.30;;;;;;;18.77;51.43;99522.72;4989604;28;20121;-42
2022/04/23 03:34:25;;;;;;;0.93;0.30;;;;;;;18.76;51.31;99519.28;4989815;28;20121;-43
2022/04/23 03:36:50;;;;;;;1.40;0.30;;;;;;;18.76;51.41;99545.66;4989924;28;20032;-43
2022/04/23 03:39:16;;;;;;;0.93;0.30;;;;;;;18.75;51.37;99541.41;4989360;28;20037;-43
2022/04/23 03:41:41;;;;;;;0.70;0.40;;;;;;;18.74;51.36;99553.00;4989574;28;20050;-42
2022/04/23 03:44:07;;;;;;;1.02;0.50;;;;;;;18.74;51.32;99554.81;4989754;28;20204;-43
2022/04/23 03:46:32;;;;;;;0.80;0.30;;;;;;;18.74;51.28;99560.91;4989778;28;20030;-41
2022/04/23 03:48:58;;;;;;;1.27;0.40;;;;;;;18.74;51.38;99560.09;4989367;28;20030;-43
2022/04/23 03:51:24;;;;;;;1.23;0.30;;;;;;;18.72;51.38;99562.97;4989248;28;20042;-44
2022/04/23 03:53:50;;;;;;;1.02;0.30;;;;;;;18.71;51.36;99563.19;4989162;28;20031;-44
2022/04/23 03:56:16;;;;;;;0.90;0.50;;;;;;;18.70;51.25;99565.00;4989454;28;20245;-42
2022/04/23 03:58:41;;;;;;;1.05;0.40;;;;;;;18.69;51.33;99563.41;4989048;28;20065;-42
2022/04/23 04:01:07;;;;;;;1.48;0.45;;;;;;;18.68;51.43;99567.06;4989309;28;20034;-43
2022/04/23 04:03:32;;;;;;;0.60;0.30;;;;;;;18.68;51.35;99569.69;4989265;28;20073;-41
2022/04/23 04:05:59;;;;;;;1.77;0.40;;;;;;;18.67;51.20;99560.16;4989277;28;20088;-43
2022/04/23 04:08:24;;;;;;;1.65;0.50;;;;;;;18.67;51.41;99570.72;4988916;28;20054;-42
2022/04/23 04:10:50;;;;;;;1.67;0.40;;;;;;;18.67;51.23;99568.09;4989217;28;20034;-43
2022/04/23 04:13:15;;;;;;;1.25;0.32;;;;;;;18.66;51.34;99566.47;4988653;28;20764;-43
2022/04/23 04:15:45;;;;;;;0.73;0.30;;;;;;;18.65;51.39;99569.31;4987432;28;20073;-43
2022/04/23 04:18:11;;;;;;;1.15;0.30;;;;;;;18.65;51.40;99572.78;4988669;28;20022;-42
2022/04/23 04:20:39;;;;;;;0.95;0.50;;;;;;;18.64;51.33;99571.16;4988747;28;20034;-42
2022/04/23 04:23:05;;;;;;;0.63;0.35;;;;;;;18.64;51.34;99570.34;4987169;28;20405;-42
2022/04/23 04:25:31;;;;;;;0.80;0.30;;;;;;;18.64;51.33;99573.00;4987705;28;20026;-41
2022/04/23 04:27:59;;;;;;;0.60;0.40;;;;;;;18.63;51.33;99566.91;4988033;28;20450;-41
2022/04/23 04:30:25;;;;;;;0.60;0.40;;;;;;;18.63;51.30;99566.91;4986289;28;20049;-41
2022/04/23 04:32:50;;;;;;;0.50;0.22;;;;;;;18.64;51.38;99570.34;4987877;28;20075;-42
2022/04/23 04:35:16;;;;;;;0.60;0.22;;;;;;;18.63;51.36;99569.53;4987679;28;20036;-41
2022/04/23 04:37:41;;;;;;;1.00;0.30;;;;;;;18.63;51.38;99579.28;4987712;28;20545;-45
2022/04/23 04:40:07;;;;;;;0.82;0.30;;;;;;;18.64;51.40;99581.72;4988075;28;20026;-42
2022/04/23 04:42:32;;;;;;;1.38;0.30;;;;;;;18.65;51.30;99580.69;4987672;28;20462;-42
2022/04/23 04:44:58;;;;;;;2.25;0.30;;;;;;;18.64;51.28;99587.00;4986005;28;20113;-41
2022/04/23 04:47:23;;;;;;;1.13;0.30;;;;;;;18.64;51.36;99583.53;4987444;28;20034;-41
2022/04/23 04:49:49;;;;;;;0.80;0.30;;;;;;;18.62;51.37;99581.13;4986806;28;20081;-42
2022/04/23 04:52:15;;;;;;;0.68;0.30;;;;;;;18.63;51.46;99581.94;4986730;28;20085;-44
2022/04/23 04:54:40;;;;;;;0.47;0.28;;;;;;;18.63;51.31;99584.56;4986547;28;20026;-42
2022/04/23 04:57:06;;;;;;;0.82;0.43;;;;;;;18.61;51.36;99581.34;4987602;28;20517;-42
2022/04/23 04:59:32;;;;;;;0.90;0.30;;;;;;;18.61;51.27;99587.41;4985399;28;20027;-44
2022/04/23 05:01:59;;;;;;;0.98;0.40;;;;;;;18.58;51.12;99580.72;4986063;28;20063;-43
2022/04/23 05:04:24;;;;;;;1.55;0.40;;;;;;;18.60;51.35;99590.25;4986103;28;20042;-45
2022/04/23 05:06:50;;;;;;;1.05;0.40;;;;;;;18.60;51.20;99588.44;4985630;28;20445;-41
2022/04/23 05:09:16;;;;;;;0.98;0.25;;;;;;;18.61;51.19;99592.69;4986466;28;20605;-41
2022/04/23 05:11:41;;;;;;;2.45;0.30;;;;;;;18.62;51.17;99589.03;4985903;28;20073;-42
2022/04/23 05:14:06;;;;;;;0.80;0.30;;;;;;;18.62;51.30;99589.03;4986927;28;20034;-42
2022/04/23 05:16:32;;;;;;;0.63;0.30;;;;;;;18.62;51.16;99583.75;4986682;28;20034;-44
2022/04/23 05:18:57;;;;;;;3.30;0.35;;;;;;;18.64;51.30;99576.44;4985531;28;20386;-44
2022/04/23 05:21:23;;;;;;;0.80;0.40;;;;;;;18.65;51.32;99578.03;4987260;28;20038;-43
2022/04/23 05:23:48;;;;;;;1.13;0.45;;;;;;;18.66;51.36;99578.84;4985666;28;20038;-43
2022/04/23 05:26:14;;;;;;;4.82;0.40;;;;;;;18.66;51.38;99579.66;4986008;28;20328;-42
2022/04/23 05:28:41;;;;;;;0.40;0.20;;;;;;;18.67;51.35;99580.47;4986554;28;20050;-42
2022/04/23 05:31:07;;;;;;;1.83;0.40;;;;;;;18.67;51.22;99583.09;4984503;28;20501;-43
2022/04/23 05:33:32;;;;;;;1.25;0.30;;;;;;;18.69;51.40;99588.97;4986147;28;20105;-43
2022/04/23 05:35:58;;;;;;;0.63;0.30;;;;;;;18.68;51.18;99592.63;4985295;28;20022;-42
2022/04/23 05:38:24;;;;;;;0.55;0.20;;;;;;;18.68;51.52;99601.34;4987043;28;20088;-43
2022/04/23 05:40:49;;;;;;;0.70;0.30;;;;;;;18.67;51.30;99598.94;4985301;28;20045;-42
2022/04/23 05:43:16;;;;;;;1.38;0.30;;;;;;;18.67;51.07;99598.94;4985856;28;20030;-41
2022/04/23 05:45:41;;;;;;;0.70;0.40;;;;;;;18.66;51.25;99600.75;4985039;28;20029;-44
2022/04/23 05:48:07;;;;;;;1.00;0.38;;;;;;;18.66;51.29;99606.03;4985594;28;20026;-41
2022/04/23 05:50:32;;;;;;;1.02;0.40;;;;;;;18.67;51.21;99609.50;4985287;28;20023;-42
2022/04/23 05:52:58;;;;;;;0.85;0.30;;;;;;;18.66;51.14;99611.31;4985231;28;20112;-42
2022/04/23 05:55:24;;;;;;;0.65;0.40;;;;;;;18.66;51.12;99619.22;4985963;28;20034;-41
2022/04/23 05:57:50;;;;;;;1.38;0.40;;;;;;;18.65;51.14;99620.25;4985052;28;20091;-42
2022/04/23 06:00:15;;;;;;;0.70;0.30;;;;;;;18.64;51.15;99625.75;4985120;28;20030;-41
2022/04/23 06:02:41;;;;;;;0.50;0.20;;;;;;;18.64;51.07;99644.22;4986120;28;20082;-42
2022/04/23 06:05:07;;;;;;;1.95;0.30;;;;;;;18.62;51.22;99655.00;4984747;28;20053;-41
2022/04/23 06:07:33;;;;;;;1.02;0.30;;;;;;;18.62;51.14;99652.34;4983715;28;20125;-43
2022/04/23 06:09:59;;;;;;;1.20;0.60;;;;;;;18.62;51.23;99651.53;4986177;28;20049;-42
2022/04/23 06:12:25;;;;;;;2.13;0.30;;;;;;;18.60;51.47;99662.31;4982485;28;20049;-41
2022/04/23 06:14:50;;;;;;;3.05;0.38;;;;;;;18.58;51.41;99667.78;4984236;28;20030;-43
2022/04/23 06:17:24;;;;;;;2.20;0.45;;;;;;;18.59;52.15;99676.50;4984520;28;20074;-42
2022/04/23 06:19:50;;;;;;;1.65;0.40;;;;;;;18.61;52.95;99682.38;4981387;28;20117;-46
2022/04/23 06:22:15;;;;;;;4.05;0.47;;;;;;;18.66;53.05;99701.03;4982733;28;20173;-42
2022/04/23 06:24:41;;;;;;;3.00;0.40;;;;;;;18.66;53.26;99698.38;4984159;28;20073;-45
2022/04/23 06:27:06;;;;;;;2.70;0.40;;;;;;;18.67;53.20;99707.91;4984251;28;20465;-43
2022/04/23 06:29:32;;;;;;;1.38;0.50;;;;;;;18.72;54.04;99713.34;4985545;28;20155;-41
2022/04/23 06:31:57;;;;;;;2.95;0.50;;;;;;;18.77;54.65;99713.53;4985441;28;20057;-42
2022/04/23 06:34:22;;;;;;;8.55;1.60;;;;;;;18.82;55.93;99724.25;4984802;28;20053;-41
2022/04/23 06:36:48;;;;;;;1.20;0.70;;;;;;;18.83;55.66;99717.13;4986141;28;20113;-46
2022/04/23 06:39:13;;;;;;;1.10;0.50;;;;;;;18.81;54.85;99729.72;4985474;28;20366;-40
2022/04/23 06:41:38;;;;;;;0.95;0.40;;;;;;;18.78;54.31;99725.69;4983754;28;20089;-41
2022/04/23 06:44:04;;;;;;;0.70;0.30;;;;;;;18.76;53.96;99729.56;4982671;28;20593;-41
2022/04/23 06:46:29;;;;;;;3.28;0.40;;;;;;;18.72;53.71;99734.47;4982136;28;20038;-40
2022/04/23 06:48:55;;;;;;;1.88;0.30;;;;;;;18.71;53.49;99732.03;4985670;28;20038;-44
2022/04/23 06:51:21;;;;;;;1.00;0.30;;;;;;;18.72;53.25;99736.28;4984619;28;20053;-41
2022/04/23 06:53:46;;;;;;;0.73;0.30;;;;;;;18.69;52.93;99726.97;4985918;28;20415;-40
2022/04/23 06:56:12;;;;;;;0.68;0.30;;;;;;;18.70;52.88;99733.06;4985308;28;20034;-43
2022/04/23 06:58:37;;;;;;;1.67;0.30;;;;;;;18.67;52.74;99726.38;4985662;28;20038;-41
2022/04/23 07:01:03;;;;;;;0.60;0.30;;;;;;;18.66;52.72;99730.03;4989086;28;20029;-41
2022/04/23 07:03:29;;;;;;;0.80;0.20;;;;;;;18.65;52.68;99735.53;4988909;28;20035;-44
2022/04/23 07:05:54;;;;;;;1.55;0.40;;;;;;;18.65;52.45;99732.91;4989657;28;20080;-43
2022/04/23 07:08:20;;;;;;;0.63;0.20;;;;;;;18.64;52.52;99723.38;4985116;28;20042;-41
2022/04/23 07:10:45;;;;;;;2.55;0.30;;;;;;;18.63;52.57;99722.56;4984221;28;20130;-41
2022/04/23 07:13:14;;;;;;;1.30;0.30;;;;;;;18.63;52.44;99719.91;4984848;28;20046;-41
2022/04/23 07:15:40;;;;;;;1.65;0.40;;;;;;;18.63;52.27;99721.75;4986389;28;20143;-42
2022/04/23 07:18:07;;;;;;;3.67;0.30;;;;;;;18.63;52.38;99727.84;5002282;28;20034;-46
2022/04/23 07:20:32;;;;;;;2.55;0.20;;;;;;;18.63;52.64;99735.75;4988312;28;20030;-43
2022/04/23 07:25:42;;;;;;;1.90;0.20;;;;;;;18.63;52.77;99733.09;4988980;28;20041;-42
2022/04/23 07:28:07;;;;;;;3.20;0.30;;;;;;;18.64;52.83;99732.09;4987956;28;20052;-42
2022/04/23 07:30:35;;;;;;;0.50;0.22;;;;;;;18.66;52.89;99734.50;4987771;28;20026;-41
2022/04/23 07:33:01;;;;;;;5.03;1.05;;;;;;;18.68;53.01;99732.47;4987848;28;20069;-42
2022/04/23 07:38:19;;;;;;;3.70;0.30;;;;;;;18.68;52.71;99732.47;4989416;28;20475;-42
2022/04/23 07:40:46;;;;;;;2.75;0.40;;;;;;;18.69;52.42;99729.63;4987508;28;20092;-42
2022/04/23 07:43:14;;;;;;;3.60;0.40;;;;;;;18.70;52.48;99731.22;4988619;28;20042;-43
2022/04/23 07:45:41;;;;;;;0.60;0.30;;;;;;;18.70;52.46;99736.50;4988735;28;20081;-42
2022/04/23 07:48:07;;;;;;;0.88;0.30;;;;;;;18.72;52.45;99734.47;4989240;28;20023;-44
2022/04/23 07:50:34;;;;;;;3.22;0.32;;;;;;;18.73;52.48;99732.63;4989223;28;20031;-45
2022/04/23 07:52:59;;;;;;;6.18;0.68;;;;;;;18.72;52.45;99734.47;4988767;28;20073;-46
2022/04/23 07:55:25;;;;;;;1.95;0.35;;;;;;;18.72;52.45;99739.75;4989123;28;20512;-45
2022/04/23 07:57:51;;;;;;;1.30;0.30;;;;;;;18.72;52.58;99739.75;4989340;28;20243;-44
2022/04/23 08:00:17;;;;;;;1.00;0.40;;;;;;;18.71;52.42;99740.75;4989128;28;20030;-43
2022/04/23 08:02:42;;;;;;;2.13;0.38;;;;;;;18.71;52.21;99740.75;4989143;28;20113;-43
2022/04/23 08:05:12;;;;;;;2.55;0.40;;;;;;;18.72;52.04;99734.47;4989025;28;20026;-45
2022/04/23 08:07:43;;;;;;;1.17;0.30;;;;;;;18.70;52.07;99733.88;4989040;28;20041;-44
2022/04/23 08:10:09;;;;;;;1.10;0.30;;;;;;;18.70;52.06;99733.06;4988443;28;20586;-44
2022/04/23 08:12:36;;;;;;;2.67;0.30;;;;;;;18.69;52.01;99731.44;4988804;28;20042;-46
2022/04/23 08:15:02;;;;;;;1.40;0.30;;;;;;;18.69;52.07;99731.44;4989222;28;20030;-45
2022/04/23 08:17:28;;;;;;;4.10;0.30;;;;;;;18.68;52.05;99741.19;4988991;28;20405;-45
2022/04/23 08:19:53;;;;;;;4.95;0.30;;;;;;;18.68;52.00;99738.56;4987642;28;20026;-43
2022/04/23 08:22:19;;;;;;;1.23;0.40;;;;;;;18.67;52.06;99744.03;4988649;28;20038;-45
2022/04/23 08:24:44;;;;;;;5.13;0.55;;;;;;;18.66;51.96;99737.97;4988735;28;20038;-44
2022/04/23 08:27:09;;;;;;;1.48;0.38;;;;;;;18.66;52.04;99739.78;4988530;28;20038;-44
2022/04/23 08:32:19;;;;;;;3.45;0.40;;;;;;;18.64;51.80;99740.00;4988934;28;20128;-46
2022/04/23 08:34:45;;;;;;;2.53;0.32;;;;;;;18.64;51.96;99744.47;4988415;28;20065;-45
2022/04/23 08:37:12;;;;;;;1.77;0.30;;;;;;;18.64;51.84;99745.28;4988242;28;20442;-44
2022/04/23 08:39:37;;;;;;;1.00;0.30;;;;;;;18.64;52.02;99753.19;4988370;28;20042;-48
2022/04/23 08:42:06;;;;;;;1.15;0.30;;;;;;;18.63;51.85;99753.41;4988505;28;20035;-43
2022/04/23 08:44:32;;;;;;;0.50;0.20;;;;;;;18.62;51.88;99752.59;4988308;28;20486;-43
2022/04/23 08:46:57;;;;;;;2.90;0.28;;;;;;;18.62;51.85;99757.88;4988520;28;20046;-43
2022/04/23 08:49:29;;;;;;;0.52;0.25;;;;;;;18.60;51.70;99759.91;4988123;28;20076;-45
2022/04/23 08:52:02;;;;;;;3.25;0.43;;;;;;;18.62;51.73;99765.78;4988107;28;20274;-45
2022/04/23 08:54:28;;;;;;;1.02;0.30;;;;;;;18.62;51.67;99760.50;4988276;28;20045;-45
2022/04/23 08:56:53;;;;;;;2.15;0.30;;;;;;;18.65;51.70;99764.56;4988568;28;20053;-45
2022/04/23 08:59:20;;;;;;;1.27;0.30;;;;;;;18.62;51.73;99757.88;4987999;28;20116;-45
2022/04/23 09:01:46;;;;;;;1.00;0.32;;;;;;;18.63;51.61;99754.22;4986625;28;20213;-43
2022/04/23 09:04:12;;;;;;;0.82;0.20;;;;;;;18.63;51.54;99758.69;4987845;28;20125;-44
2022/04/23 09:06:39;;;;;;;0.80;0.30;;;;;;;18.63;51.54;99754.22;4988047;28;20034;-48
2022/04/23 09:09:06;;;;;;;1.35;0.35;;;;;;;18.63;51.60;99748.94;4988072;28;20027;-45
2022/04/23 09:11:35;;;;;;;1.23;0.30;;;;;;;18.63;51.48;99748.94;4987793;28;20103;-45
2022/04/23 09:14:05;;;;;;;3.20;0.30;;;;;;;18.63;51.34;99753.41;4987548;28;20038;-42
2022/04/23 09:25:07;;;;;;;1.20;0.32;;;;;;;18.58;51.49;99736.34;4987727;28;20315;-46
2022/04/23 09:27:34;;;;;;;2.75;0.40;;;;;;;18.60;51.48;99738.81;4987248;28;20062;-42
2022/04/23 09:30:08;;;;;;;2.25;0.30;;;;;;;18.58;51.50;99738.19;4987356;28;20493;-44
2022/04/23 09:32:34;;;;;;;1.23;0.25;;;;;;;18.59;51.72;99737.16;4987455;28;20054;-46
2022/04/23 09:35:10;;;;;;;1.02;0.20;;;;;;;18.57;51.45;99739.22;4985927;28;20057;-46
2022/04/23 09:40:23;;;;;;;0.77;0.20;;;;;;;18.56;51.56;99751.59;4987776;28;20103;-43
2022/04/23 09:43:11;;;;;;;0.50;0.20;;;;;;;18.56;51.58;99762.13;4987633;28;20050;-46
2022/04/23 09:45:42;;;;;;;2.38;0.40;;;;;;;18.58;51.43;99769.84;4987705;28;20034;-43
2022/04/23 09:48:16;;;;;;;1.20;0.20;;;;;;;18.59;51.37;99774.09;4987057;28;20078;-46
2022/04/23 09:50:47;;;;;;;0.95;0.30;;;;;;;18.59;51.44;99779.38;4987040;28;20400;-43
2022/04/23 09:53:15;;;;;;;1.25;0.30;;;;;;;18.61;51.30;99782.63;4987087;28;20061;-43
2022/04/23 09:55:41;;;;;;;1.95;0.20;;;;;;;18.62;51.32;99783.44;4987262;28;20034;-43
2022/04/23 09:58:08;;;;;;;0.90;0.30;;;;;;;18.64;51.46;99791.97;4986998;28;20034;-41
2022/04/23 10:00:39;;;;;;;1.08;0.30;;;;;;;18.65;51.33;99793.56;4987382;28;20063;-42
2022/04/23 10:03:09;;;;;;;0.80;0.20;;;;;;;18.64;51.23;99798.03;4985877;28;20049;-42
2022/04/23 10:05:44;;;;;;;0.70;0.20;;;;;;;18.63;51.26;99801.69;4987196;28;20022;-44
2022/04/23 10:08:12;;;;;;;0.90;0.30;;;;;;;18.66;51.34;99805.75;4987302;28;20046;-42
2022/04/23 10:10:56;;;;;;;1.42;0.30;;;;;;;18.63;51.06;99799.06;4987265;28;20022;-42
2022/04/23 10:13:25;;;;;;;1.23;0.40;;;;;;;18.66;51.13;99803.09;4986659;28;20096;-42
2022/04/23 10:15:53;;;;;;;0.60;0.20;;;;;;;18.65;51.15;99799.66;4987025;28;20053;-43
2022/04/23 10:18:19;;;;;;;0.68;0.20;;;;;;;18.65;51.62;99789.09;4987103;28;20034;-42
2022/04/23 10:20:55;;;;;;;1.95;0.30;;;;;;;18.65;51.03;99799.66;4986770;28;20117;-43
2022/04/23 10:23:49;;;;;;;2.90;0.20;;;;;;;18.61;51.12;99811.66;4987099;28;20034;-44
2022/04/23 10:26:39;;;;;;;1.92;0.20;;;;;;;18.61;51.20;99819.56;4961091;28;20042;-42
2022/04/23 10:29:15;;;;;;;1.13;0.30;;;;;;;18.61;51.26;99813.50;4986618;28;20330;-43
2022/04/23 10:31:41;;;;;;;1.63;0.30;;;;;;;18.62;51.12;99805.38;4986924;28;20545;-43
2022/04/23 10:34:33;;;;;;;2.47;0.32;;;;;;;18.59;51.18;99800.47;4990461;28;20038;-45
2022/04/23 10:37:39;;;;;;;2.22;0.30;;;;;;;18.57;51.35;99798.06;4982669;28;20359;-42
2022/04/23 10:40:04;;;;;;;1.27;0.20;;;;;;;18.59;51.24;99795.19;4960681;28;20049;-42
2022/04/23 10:42:32;;;;;;;0.47;0.20;;;;;;;18.60;51.09;99801.28;4990744;28;20034;-42
2022/04/23 10:45:03;;;;;;;2.15;0.30;;;;;;;18.59;51.38;99803.13;4990944;28;20506;-42
2022/04/23 10:47:34;;;;;;;1.55;0.30;;;;;;;18.60;51.39;99806.56;4990864;28;20113;-42
2022/04/23 10:52:47;;;;;;;0.93;0.30;;;;;;;18.58;51.35;99794.41;4990537;28;20034;-44
2022/04/23 10:55:13;;;;;;;0.60;0.20;;;;;;;18.59;51.37;99800.47;4990703;28;20030;-44
2022/04/23 10:57:46;;;;;;;0.85;0.20;;;;;;;18.58;51.56;99788.31;4990505;28;20027;-42
2022/04/23 11:00:16;;;;;;;1.65;0.30;;;;;;;18.58;51.30;99788.31;4990490;28;20042;-42
2022/04/23 11:02:45;;;;;;;0.55;0.20;;;;;;;18.58;51.36;99790.94;4990363;28;20031;-43
2022/04/23 11:14:44;;;;;;;1.17;0.22;;;;;;;18.55;51.29;99789.53;4948580;29;20089;-42
2022/04/23 11:17:22;;;;;;;2.05;0.30;;;;;;;18.56;51.37;99790.34;4948378;29;20054;-42
2022/04/23 11:19:54;;;;;;;0.43;0.10;;;;;;;18.58;51.28;99788.31;4948347;28;20494;-44
2022/04/23 11:22:21;;;;;;;0.57;0.20;;;;;;;18.59;51.20;99792.56;4948256;29;20093;-42
2022/04/23 11:24:53;;;;;;;1.05;0.20;;;;;;;18.59;51.10;99789.94;4948326;29;20043;-42
2022/04/23 11:27:28;;;;;;;1.10;0.20;;;;;;;18.59;51.20;99792.56;4948334;29;20509;-44
2022/04/23 11:29:54;;;;;;;0.75;0.20;;;;;;;18.58;51.14;99798.84;4948116;29;20182;-46
2022/04/23 11:32:31;;;;;;;1.38;0.47;;;;;;;18.57;51.14;99794.59;4948001;29;20672;-43
2022/04/23 11:34:57;;;;;;;0.43;0.17;;;;;;;18.58;51.13;99798.84;4948137;29;20035;-44
2022/04/23 11:37:48;;;;;;;1.00;0.30;;;;;;;18.55;51.30;99804.56;4948136;29;20086;-44
2022/04/23 11:40:17;;;;;;;1.23;0.20;;;;;;;18.57;51.14;99807.78;4944479;29;20085;-42
2022/04/23 11:42:47;;;;;;;1.05;0.20;;;;;;;18.56;51.25;99801.72;4948065;29;20463;-42
2022/04/23 11:45:15;;;;;;;0.50;0.20;;;;;;;18.56;51.12;99801.72;4964618;28;20112;-44
2022/04/23 11:47:40;;;;;;;0.85;0.20;;;;;;;18.56;51.21;99808.81;4989689;28;20057;-45
2022/04/23 11:50:16;;;;;;;0.52;0.20;;;;;;;18.55;51.20;99804.56;4989610;28;20058;-43
2022/04/23 11:52:44;;;;;;;0.88;0.20;;;;;;;18.55;51.14;99810.66;4989516;28;20039;-43
2022/04/23 11:55:21;;;;;;;0.95;0.20;;;;;;;18.53;51.10;99804.78;4989681;28;20434;-44
2022/04/23 11:57:56;;;;;;;0.95;0.20;;;;;;;18.52;51.15;99810.25;4989710;28;20031;-45
2022/04/23 12:00:22;;;;;;;0.40;0.20;;;;;;;18.53;51.24;99812.69;4989381;28;20030;-43
2022/04/23 12:02:48;;;;;;;0.50;0.20;;;;;;;18.54;51.17;99814.31;4989572;28;20072;-44
2022/04/23 12:05:22;;;;;;;0.93;0.20;;;;;;;18.54;51.25;99818.78;4989251;28;20026;-44
2022/04/23 12:07:47;;;;;;;0.32;0.10;;;;;;;18.56;51.12;99816.72;4989060;28;20030;-46